createdAt,value
2017-07-29T00:00:46.846Z,89.95
2017-07-29T00:01:46.827Z,90.91
2017-07-29T00:02:46.824Z,90.91
2017-07-29T00:03:46.818Z,90.05
2017-07-29T00:04:46.915Z,89.86
2017-07-29T00:05:46.912Z,90.14
2017-07-29T00:06:46.806Z,90.91
2017-07-29T00:07:46.948Z,90.91
2017-07-29T00:08:46.797Z,90.62
2017-07-29T00:09:46.790Z,90.14
2017-07-29T00:10:46.787Z,90.62
2017-07-29T00:11:46.783Z,90.14
2017-07-29T00:12:46.777Z,90.62
2017-07-29T00:13:46.875Z,90.62
2017-07-29T00:14:46.772Z,90.91
2017-07-29T00:15:46.768Z,90.72
2017-07-29T00:16:46.760Z,90.81
2017-07-29T00:17:46.759Z,90.72
2017-07-29T00:18:46.756Z,90.72
2017-07-29T00:19:46.870Z,91
2017-07-29T00:20:46.743Z,90.72
2017-07-29T00:21:46.741Z,90.72
2017-07-29T00:22:46.426Z,90.72
2017-07-29T00:23:46.726Z,90.81
2017-07-29T00:24:46.945Z,91
2017-07-29T00:25:46.719Z,90.62
2017-07-29T00:26:46.716Z,91.1
2017-07-29T00:27:46.714Z,90.72
2017-07-29T00:28:46.807Z,90.72
2017-07-29T00:29:46.700Z,90.62
2017-07-29T00:30:46.701Z,90.43
2017-07-29T00:31:46.693Z,90.43
2017-07-29T00:32:46.381Z,90.91
2017-07-29T00:33:46.784Z,90.91
2017-07-29T00:34:46.681Z,90.91
2017-07-29T00:35:46.675Z,91
2017-07-29T00:36:46.669Z,90.91
2017-07-29T00:37:46.667Z,90.91
2017-07-29T00:38:46.658Z,90.72
2017-07-29T00:39:46.805Z,90.81
2017-07-29T00:40:46.654Z,90.91
2017-07-29T00:41:46.652Z,91
2017-07-29T00:42:46.641Z,91.19
2017-07-29T00:43:46.639Z,91
2017-07-29T00:44:46.633Z,91
2017-07-29T00:45:46.631Z,91.1
2017-07-29T00:46:46.620Z,91.49
2017-07-29T00:47:46.622Z,91.19
2017-07-29T00:48:46.617Z,90.91
2017-07-29T00:49:46.718Z,90.81
2017-07-29T00:50:46.608Z,91.1
2017-07-29T00:51:46.603Z,90.91
2017-07-29T00:52:46.595Z,90.91
2017-07-29T00:53:46.590Z,91
2017-07-29T00:54:46.586Z,90.91
2017-07-29T00:55:46.584Z,90.91
2017-07-29T00:56:46.575Z,90.81
2017-07-29T00:57:46.572Z,90.91
2017-07-29T00:58:46.673Z,90.81
2017-07-29T00:59:46.564Z,91
2017-07-29T01:00:46.659Z,91
2017-07-29T01:01:46.559Z,91
2017-07-29T01:02:46.549Z,91
2017-07-29T01:03:46.547Z,90.81
2017-07-29T01:04:46.543Z,90.72
2017-07-29T01:05:46.536Z,90.62
2017-07-29T01:06:46.532Z,90.72
2017-07-29T01:07:46.526Z,90.53
2017-07-29T01:08:46.523Z,90.43
2017-07-29T01:09:46.518Z,90.81
2017-07-29T01:10:46.517Z,90.62
2017-07-29T01:11:46.514Z,90.62
2017-07-29T01:12:46.506Z,90.43
2017-07-29T01:13:46.500Z,90.53
2017-07-29T01:14:46.597Z,91
2017-07-29T01:15:46.493Z,90.81
2017-07-29T01:16:46.494Z,90.91
2017-07-29T01:17:46.486Z,90.72
2017-07-29T01:18:46.477Z,91.1
2017-07-29T01:19:46.476Z,90.96
2017-07-29T01:20:46.468Z,91.53
2017-07-29T01:21:46.669Z,91.44
2017-07-29T01:22:46.463Z,91.15
2017-07-29T01:23:46.150Z,91.34
2017-07-29T01:24:46.451Z,90.96
2017-07-29T01:25:46.446Z,91.63
2017-07-29T01:26:46.440Z,91.25
2017-07-29T01:27:46.131Z,91.44
2017-07-29T01:28:46.433Z,91.44
2017-07-29T01:29:46.433Z,91.34
2017-07-29T01:30:46.423Z,92.3
2017-07-29T01:31:46.569Z,92.21
2017-07-29T01:32:46.417Z,92.21
2017-07-29T01:33:46.409Z,91.92
2017-07-29T01:34:46.412Z,91.92
2017-07-29T01:35:46.093Z,92.11
2017-07-29T01:36:46.394Z,91.92
2017-07-29T01:37:46.392Z,91.92
2017-07-29T01:38:46.387Z,92.11
2017-07-29T01:39:46.384Z,92.21
2017-07-29T01:40:46.378Z,92.25
2017-07-29T01:41:46.067Z,92.25
2017-07-29T01:42:46.370Z,92.3
2017-07-29T01:43:46.365Z,92.11
2017-07-29T01:44:46.360Z,92.3
2017-07-29T01:45:46.355Z,92.78
2017-07-29T01:46:46.353Z,92.73
2017-07-29T01:47:46.344Z,92.63
2017-07-29T01:48:46.038Z,92.73
2017-07-29T01:49:46.332Z,92.54
2017-07-29T01:50:46.332Z,92.54
2017-07-29T01:51:46.324Z,92.44
2017-07-29T01:52:46.474Z,92.54
2017-07-29T01:53:46.464Z,92.73
2017-07-29T01:54:46.311Z,92.83
2017-07-29T01:55:46.310Z,93.5
2017-07-29T01:56:46.304Z,93.59
2017-07-29T01:57:46.296Z,93.3
2017-07-29T01:58:45.985Z,93.4
2017-07-29T01:59:46.291Z,93.3
2017-07-29T02:00:46.282Z,93.12
2017-07-29T02:01:46.379Z,93.12
2017-07-29T02:02:46.276Z,92.83
2017-07-29T02:03:46.273Z,93.12
2017-07-29T02:04:46.366Z,93.12
2017-07-29T02:05:46.359Z,93.5
2017-07-29T02:06:46.257Z,93.12
2017-07-29T02:07:46.253Z,92.92
2017-07-29T02:08:46.245Z,93.21
2017-07-29T02:09:46.243Z,93.79
2017-07-29T02:10:46.242Z,93.02
2017-07-29T02:11:46.231Z,93.12
2017-07-29T02:12:46.227Z,93.12
2017-07-29T02:13:46.221Z,93.3
2017-07-29T02:14:46.321Z,92.97
2017-07-29T02:15:46.216Z,93.88
2017-07-29T02:16:46.211Z,93.55
2017-07-29T02:17:46.204Z,93.84
2017-07-29T02:18:46.208Z,94.21
2017-07-29T02:19:46.296Z,93.93
2017-07-29T02:20:46.192Z,94.02
2017-07-29T02:21:46.184Z,94.02
2017-07-29T02:22:46.183Z,93.93
2017-07-29T02:23:46.177Z,93.93
2017-07-29T02:24:46.323Z,94.02
2017-07-29T02:25:46.167Z,93.93
2017-07-29T02:26:46.161Z,93.93
2017-07-29T02:27:46.157Z,94.12
2017-07-29T02:28:46.151Z,93.84
2017-07-29T02:29:46.150Z,93.93
2017-07-29T02:30:45.837Z,93.93
2017-07-29T02:31:46.295Z,94.21
2017-07-29T02:32:46.135Z,94.12
2017-07-29T02:33:46.128Z,94.21
2017-07-29T02:34:46.129Z,94.12
2017-07-29T02:35:46.121Z,94.02
2017-07-29T02:36:46.115Z,94.31
2017-07-29T02:37:46.112Z,94.12
2017-07-29T02:38:46.215Z,93.84
2017-07-29T02:39:46.107Z,94.02
2017-07-29T02:40:46.094Z,94.02
2017-07-29T02:41:46.100Z,93.64
2017-07-29T02:42:46.089Z,93.74
2017-07-29T02:43:46.092Z,94.41
2017-07-29T02:44:46.180Z,93.74
2017-07-29T02:45:46.077Z,94.41
2017-07-29T02:46:46.067Z,94.02
2017-07-29T02:47:46.062Z,94.41
2017-07-29T02:48:46.159Z,93.74
2017-07-29T02:49:46.058Z,94.31
2017-07-29T02:50:46.153Z,93.84
2017-07-29T02:51:46.045Z,93.93
2017-07-29T02:52:45.836Z,93.74
2017-07-29T02:53:46.136Z,93.74
2017-07-29T02:54:46.031Z,94.12
2017-07-29T02:55:46.026Z,93.93
2017-07-29T02:56:46.024Z,93.93
2017-07-29T02:57:46.018Z,93.93
2017-07-29T02:58:46.175Z,93.93
2017-07-29T02:59:46.007Z,94.31
2017-07-29T03:00:46.004Z,93.93
2017-07-29T03:01:45.997Z,93.93
2017-07-29T03:02:45.993Z,93.93
2017-07-29T03:03:45.988Z,94.07
2017-07-29T03:04:45.985Z,93.88
2017-07-29T03:05:45.977Z,93.88
2017-07-29T03:06:45.974Z,93.93
2017-07-29T03:07:45.969Z,93.88
2017-07-29T03:08:46.071Z,94.02
2017-07-29T03:09:45.963Z,93.88
2017-07-29T03:10:45.960Z,93.88
2017-07-29T03:11:45.951Z,93.98
2017-07-29T03:12:45.954Z,94.6
2017-07-29T03:13:45.945Z,93.88
2017-07-29T03:14:45.944Z,93.88
2017-07-29T03:15:45.625Z,93.88
2017-07-29T03:16:46.078Z,93.88
2017-07-29T03:17:45.924Z,93.93
2017-07-29T03:18:45.920Z,94.07
2017-07-29T03:19:45.913Z,94.07
2017-07-29T03:20:45.914Z,93.93
2017-07-29T03:21:45.903Z,93.74
2017-07-29T03:22:46.001Z,93.69
2017-07-29T03:23:45.894Z,93.69
2017-07-29T03:24:45.892Z,93.69
2017-07-29T03:25:45.889Z,93.79
2017-07-29T03:26:45.881Z,94.36
2017-07-29T03:27:45.878Z,94.36
2017-07-29T03:28:45.875Z,94.17
2017-07-29T03:29:45.864Z,94.12
2017-07-29T03:30:45.862Z,93.69
2017-07-29T03:31:45.957Z,94.26
2017-07-29T03:32:46.005Z,94.26
2017-07-29T03:33:45.541Z,93.79
2017-07-29T03:34:45.843Z,93.88
2017-07-29T03:35:45.836Z,93.69
2017-07-29T03:36:45.830Z,93.88
2017-07-29T03:37:45.830Z,94.36
2017-07-29T03:38:45.832Z,94.65
2017-07-29T03:39:45.918Z,94.17
2017-07-29T03:40:45.816Z,94.07
2017-07-29T03:41:45.810Z,94.07
2017-07-29T03:42:45.806Z,94.46
2017-07-29T03:43:46.052Z,95.03
2017-07-29T03:44:45.896Z,94.36
2017-07-29T03:45:45.789Z,95.12
2017-07-29T03:46:45.480Z,94.36
2017-07-29T03:47:45.782Z,94.36
2017-07-29T03:48:45.875Z,94.26
2017-07-29T03:49:45.921Z,94.46
2017-07-29T03:50:45.560Z,94.26
2017-07-29T03:51:45.760Z,94.07
2017-07-29T03:52:45.758Z,94.17
2017-07-29T03:53:45.750Z,94.26
2017-07-29T03:54:45.847Z,94.65
2017-07-29T03:55:45.738Z,94.26
2017-07-29T03:56:45.737Z,94.46
2017-07-29T03:57:45.735Z,94.26
2017-07-29T03:58:45.730Z,94.17
2017-07-29T03:59:45.416Z,94.74
2017-07-29T04:00:45.719Z,94.46
2017-07-29T04:01:45.712Z,94.46
2017-07-29T04:02:45.808Z,94.26
2017-07-29T04:03:45.702Z,94.46
2017-07-29T04:04:45.706Z,94.46
2017-07-29T04:05:45.694Z,94.26
2017-07-29T04:06:45.690Z,94.26
2017-07-29T04:07:45.685Z,94.55
2017-07-29T04:08:45.679Z,94.46
2017-07-29T04:09:45.681Z,93.98
2017-07-29T04:10:45.848Z,93.69
2017-07-29T04:11:45.665Z,93.88
2017-07-29T04:12:45.356Z,93.88
2017-07-29T04:13:45.654Z,94.07
2017-07-29T04:14:45.648Z,94.36
2017-07-29T04:15:45.800Z,94.36
2017-07-29T04:16:45.640Z,94.74
2017-07-29T04:17:45.636Z,94.26
2017-07-29T04:18:45.630Z,94.07
2017-07-29T04:19:45.630Z,94.07
2017-07-29T04:20:45.620Z,93.69
2017-07-29T04:21:45.616Z,94.26
2017-07-29T04:22:45.616Z,93.69
2017-07-29T04:23:45.609Z,93.88
2017-07-29T04:24:45.608Z,93.98
2017-07-29T04:25:45.602Z,93.98
2017-07-29T04:26:45.695Z,94.21
2017-07-29T04:27:45.385Z,94.36
2017-07-29T04:28:45.584Z,94.21
2017-07-29T04:29:45.578Z,94.07
2017-07-29T04:30:45.577Z,94.07
2017-07-29T04:31:45.821Z,93.84
2017-07-29T04:32:45.570Z,93.88
2017-07-29T04:33:45.558Z,94.12
2017-07-29T04:34:45.679Z,94.12
2017-07-29T04:35:45.245Z,94.41
2017-07-29T04:36:45.548Z,94.5
2017-07-29T04:37:45.542Z,94.12
2017-07-29T04:38:45.639Z,93.74
2017-07-29T04:39:45.530Z,93.93
2017-07-29T04:40:45.529Z,92.97
2017-07-29T04:41:45.521Z,93.84
2017-07-29T04:42:45.519Z,94.07
2017-07-29T04:43:45.513Z,94.17
2017-07-29T04:44:45.508Z,93.16
2017-07-29T04:45:45.507Z,92.44
2017-07-29T04:46:45.499Z,91.58
2017-07-29T04:47:45.498Z,90.76
2017-07-29T04:48:45.491Z,90.14
2017-07-29T04:49:45.486Z,88.74
2017-07-29T04:50:45.585Z,88.26
2017-07-29T04:51:45.475Z,88.17
2017-07-29T04:52:45.473Z,87.4
2017-07-29T04:53:45.574Z,86.58
2017-07-29T04:54:45.468Z,85.81
2017-07-29T04:55:45.460Z,84.8
2017-07-29T04:56:45.456Z,83.54
2017-07-29T04:57:45.480Z,82.73
2017-07-29T04:58:45.452Z,81.96
2017-07-29T04:59:45.439Z,80.61
2017-07-29T05:00:45.435Z,80.36
2017-07-29T05:01:45.433Z,79.53
2017-07-29T05:02:45.426Z,77.9
2017-07-29T05:03:45.424Z,77.33
2017-07-29T05:04:45.422Z,76.88
2017-07-29T05:05:45.413Z,76.11
2017-07-29T05:06:45.410Z,75.63
2017-07-29T05:07:45.408Z,75.28
2017-07-29T05:08:45.502Z,74.22
2017-07-29T05:09:45.396Z,73.3
2017-07-29T05:10:45.494Z,73.58
2017-07-29T05:11:45.390Z,72.72
2017-07-29T05:12:45.384Z,71.89
2017-07-29T05:13:45.383Z,71.79
2017-07-29T05:14:45.381Z,70.67
2017-07-29T05:15:45.375Z,69.8
2017-07-29T05:16:45.371Z,69.64
2017-07-29T05:17:45.364Z,68.77
2017-07-29T05:18:45.512Z,68.01
2017-07-29T05:19:45.356Z,68.33
2017-07-29T05:20:45.352Z,67.17
2017-07-29T05:21:45.352Z,66.49
2017-07-29T05:22:45.349Z,65.85
2017-07-29T05:23:45.344Z,65.47
2017-07-29T05:24:45.339Z,64.89
2017-07-29T05:25:45.339Z,64.4
2017-07-29T05:26:45.535Z,64.01
2017-07-29T05:27:45.326Z,63.47
2017-07-29T05:28:45.325Z,62.89
2017-07-29T05:29:45.323Z,62.4
2017-07-29T05:30:45.417Z,62.5
2017-07-29T05:31:45.313Z,62.21
2017-07-29T05:32:45.309Z,62.98
2017-07-29T05:33:45.308Z,62.6
2017-07-29T05:34:45.452Z,62.34
2017-07-29T05:35:45.303Z,61.69
2017-07-29T05:36:45.297Z,61.4
2017-07-29T05:37:45.299Z,61.15
2017-07-29T05:38:45.294Z,61.33
2017-07-29T05:39:45.390Z,60.66
2017-07-29T05:40:45.285Z,60.85
2017-07-29T05:41:45.434Z,60.21
2017-07-29T05:42:45.279Z,59.91
2017-07-29T05:43:45.275Z,59.43
2017-07-29T05:44:45.278Z,58.78
2017-07-29T05:45:45.371Z,58.3
2017-07-29T05:46:45.367Z,57.65
2017-07-29T05:47:45.364Z,57.07
2017-07-29T05:48:45.264Z,56.51
2017-07-29T05:49:45.259Z,57
2017-07-29T05:50:45.357Z,56.61
2017-07-29T05:51:45.259Z,56.23
2017-07-29T05:52:45.252Z,56.13
2017-07-29T05:53:45.248Z,55.74
2017-07-29T05:54:45.249Z,55.87
2017-07-29T05:55:45.349Z,54.99
2017-07-29T05:56:45.248Z,54.9
2017-07-29T05:57:45.240Z,55.08
2017-07-29T05:58:45.339Z,55.18
2017-07-29T05:59:45.339Z,55.28
2017-07-29T06:00:45.247Z,55.77
2017-07-29T06:01:45.239Z,55.35
2017-07-29T06:02:45.332Z,55.28
2017-07-29T06:03:45.232Z,55.08
2017-07-29T06:04:45.334Z,54.21
2017-07-29T06:05:44.925Z,53.66
2017-07-29T06:06:45.233Z,53.92
2017-07-29T06:07:45.225Z,54.02
2017-07-29T06:08:44.924Z,54.11
2017-07-29T06:09:44.920Z,54.96
2017-07-29T06:10:45.320Z,55.52
2017-07-29T06:11:45.216Z,57.07
2017-07-29T06:12:45.214Z,58.27
2017-07-29T06:13:45.217Z,58.56
2017-07-29T06:14:45.213Z,59.31
2017-07-29T06:15:45.211Z,59.98
2017-07-29T06:16:45.211Z,60.66
2017-07-29T06:17:45.209Z,61.11
2017-07-29T06:18:45.205Z,60.63
2017-07-29T06:19:45.303Z,60.66
2017-07-29T06:20:45.202Z,61.15
2017-07-29T06:21:45.298Z,60.95
2017-07-29T06:22:45.197Z,61.6
2017-07-29T06:23:45.198Z,61.15
2017-07-29T06:24:45.195Z,61.33
2017-07-29T06:25:45.198Z,61.15
2017-07-29T06:26:45.193Z,60.75
2017-07-29T06:27:45.190Z,60.88
2017-07-29T06:28:45.190Z,60.69
2017-07-29T06:29:45.282Z,61.53
2017-07-29T06:30:45.183Z,61.33
2017-07-29T06:31:45.278Z,61.98
2017-07-29T06:32:45.179Z,62.47
2017-07-29T06:33:45.174Z,62.79
2017-07-29T06:34:45.180Z,62.98
2017-07-29T06:35:45.320Z,62.59
2017-07-29T06:36:45.171Z,62.3
2017-07-29T06:37:45.167Z,62.5
2017-07-29T06:38:45.165Z,62.4
2017-07-29T06:39:45.163Z,62.5
2017-07-29T06:40:44.856Z,62.98
2017-07-29T06:41:45.160Z,62.88
2017-07-29T06:42:45.157Z,63.24
2017-07-29T06:43:44.860Z,63.82
2017-07-29T06:44:45.151Z,64.76
2017-07-29T06:45:45.254Z,65.11
2017-07-29T06:46:44.945Z,65.59
2017-07-29T06:47:45.145Z,65.14
2017-07-29T06:48:45.142Z,63.14
2017-07-29T06:49:45.140Z,61.36
2017-07-29T06:50:45.140Z,59.2
2017-07-29T06:51:44.834Z,57.42
2017-07-29T06:52:45.135Z,55.24
2017-07-29T06:53:45.132Z,55.07
2017-07-29T06:54:44.824Z,54.29
2017-07-29T06:55:45.130Z,54.1
2017-07-29T06:56:45.127Z,54.49
2017-07-29T06:57:45.128Z,54
2017-07-29T06:58:45.129Z,54.56
2017-07-29T06:59:45.220Z,55.11
2017-07-29T07:00:45.120Z,55.31
2017-07-29T07:01:45.118Z,55.21
2017-07-29T07:02:44.812Z,55.44
2017-07-29T07:03:45.119Z,56.51
2017-07-29T07:04:45.112Z,57.26
2017-07-29T07:05:45.114Z,57.62
2017-07-29T07:06:45.114Z,58.2
2017-07-29T07:07:45.108Z,58.01
2017-07-29T07:08:45.105Z,57.71
2017-07-29T07:09:44.797Z,56.87
2017-07-29T07:10:45.101Z,54.7
2017-07-29T07:11:45.098Z,53.03
2017-07-29T07:12:45.099Z,51.79
2017-07-29T07:13:45.097Z,51.23
2017-07-29T07:14:45.241Z,50.87
2017-07-29T07:15:45.094Z,49.15
2017-07-29T07:16:45.090Z,48.68
2017-07-29T07:17:45.096Z,48
2017-07-29T07:18:45.084Z,47.44
2017-07-29T07:19:45.086Z,47.15
2017-07-29T07:20:45.180Z,45.25
2017-07-29T07:21:45.078Z,44.12
2017-07-29T07:22:44.771Z,42.87
2017-07-29T07:23:45.080Z,41.54
2017-07-29T07:24:45.072Z,39.9
2017-07-29T07:25:45.174Z,39.43
2017-07-29T07:26:45.072Z,38.67
2017-07-29T07:27:45.068Z,38.2
2017-07-29T07:28:45.066Z,36.25
2017-07-29T07:29:45.067Z,36.25
2017-07-29T07:30:45.217Z,35.68
2017-07-29T07:31:45.164Z,35.49
2017-07-29T07:32:45.062Z,34.33
2017-07-29T07:33:45.062Z,33.64
2017-07-29T07:34:45.057Z,33.17
2017-07-29T07:35:45.158Z,32.68
2017-07-29T07:36:45.055Z,32.48
2017-07-29T07:37:45.051Z,32.01
2017-07-29T07:38:45.051Z,31.02
2017-07-29T07:39:45.051Z,31.01
2017-07-29T07:40:45.050Z,30.81
2017-07-29T07:41:45.049Z,30.91
2017-07-29T07:42:45.045Z,30.53
2017-07-29T07:43:45.043Z,30.52
2017-07-29T07:44:45.043Z,30.24
2017-07-29T07:45:45.139Z,30.04
2017-07-29T07:46:45.041Z,29.75
2017-07-29T07:47:45.132Z,29.47
2017-07-29T07:48:45.188Z,29.66
2017-07-29T07:49:45.031Z,29.75
2017-07-29T07:50:45.028Z,29.93
2017-07-29T07:51:45.032Z,30.12
2017-07-29T07:52:45.128Z,30.14
2017-07-29T07:53:45.024Z,29.64
2017-07-29T07:54:45.030Z,29.25
2017-07-29T07:55:45.021Z,29.37
2017-07-29T07:56:45.122Z,28.69
2017-07-29T07:57:45.023Z,28.2
2017-07-29T07:58:45.018Z,27.91
2017-07-29T07:59:45.015Z,27.82
2017-07-29T08:00:45.015Z,27.82
2017-07-29T08:01:45.111Z,27.82
2017-07-29T08:02:45.009Z,28.31
2017-07-29T08:03:45.018Z,27.81
2017-07-29T08:04:45.008Z,28
2017-07-29T08:05:45.003Z,27.81
2017-07-29T08:06:45.101Z,28.02
2017-07-29T08:07:45.003Z,27.62
2017-07-29T08:08:44.996Z,27.54
2017-07-29T08:09:44.999Z,27.74
2017-07-29T08:10:44.997Z,27.72
2017-07-29T08:11:44.991Z,27.53
2017-07-29T08:12:45.092Z,28.2
2017-07-29T08:13:45.090Z,27.71
2017-07-29T08:14:45.136Z,27.91
2017-07-29T08:15:44.986Z,28
2017-07-29T08:16:44.981Z,27.62
2017-07-29T08:17:44.985Z,28.11
2017-07-29T08:18:45.081Z,28.68
2017-07-29T08:19:44.976Z,28.85
2017-07-29T08:20:44.816Z,29.05
2017-07-29T08:21:44.993Z,28.75
2017-07-29T08:22:44.966Z,27.88
2017-07-29T08:23:44.968Z,27.6
2017-07-29T08:24:44.965Z,27.91
2017-07-29T08:25:45.064Z,27.62
2017-07-29T08:26:45.056Z,27.04
2017-07-29T08:27:44.957Z,27.33
2017-07-29T08:28:44.952Z,27.62
2017-07-29T08:29:44.949Z,27.91
2017-07-29T08:30:44.946Z,27.81
2017-07-29T08:31:45.048Z,28
2017-07-29T08:32:44.945Z,27.91
2017-07-29T08:33:44.939Z,27.72
2017-07-29T08:34:44.940Z,27.53
2017-07-29T08:35:45.033Z,27.12
2017-07-29T08:36:44.932Z,26.73
2017-07-29T08:37:44.934Z,26.73
2017-07-29T08:38:44.929Z,26.82
2017-07-29T08:39:44.926Z,26.73
2017-07-29T08:40:44.924Z,26.82
2017-07-29T08:41:44.920Z,26.74
2017-07-29T08:42:44.915Z,26.25
2017-07-29T08:43:44.914Z,26.35
2017-07-29T08:44:45.059Z,26.82
2017-07-29T08:45:44.909Z,27.8
2017-07-29T08:46:44.904Z,28.16
2017-07-29T08:47:44.904Z,29.43
2017-07-29T08:48:44.902Z,30.26
2017-07-29T08:49:44.899Z,31.21
2017-07-29T08:50:44.895Z,32.26
2017-07-29T08:51:44.892Z,33.22
2017-07-29T08:52:44.888Z,34.18
2017-07-29T08:53:44.884Z,34.53
2017-07-29T08:54:44.880Z,35.59
2017-07-29T08:55:44.982Z,36.65
2017-07-29T08:56:44.875Z,37.12
2017-07-29T08:57:44.568Z,37.87
2017-07-29T08:58:44.872Z,37.37
2017-07-29T08:59:44.870Z,37.93
2017-07-29T09:00:44.968Z,38.42
2017-07-29T09:01:44.864Z,39.08
2017-07-29T09:02:44.858Z,39.57
2017-07-29T09:03:44.854Z,39.96
2017-07-29T09:04:44.649Z,40.44
2017-07-29T09:05:44.649Z,41.03
2017-07-29T09:06:44.850Z,41.39
2017-07-29T09:07:44.866Z,41.3
2017-07-29T09:08:44.843Z,41.69
2017-07-29T09:09:44.939Z,41.69
2017-07-29T09:10:44.945Z,42.05
2017-07-29T09:11:44.831Z,42.83
2017-07-29T09:12:44.932Z,42.74
2017-07-29T09:13:44.826Z,42.91
2017-07-29T09:14:44.826Z,43.59
2017-07-29T09:15:44.517Z,43.98
2017-07-29T09:16:44.819Z,44.27
2017-07-29T09:17:44.612Z,43.88
2017-07-29T09:18:44.515Z,44.64
2017-07-29T09:19:44.809Z,44.83
2017-07-29T09:20:44.807Z,44.92
2017-07-29T09:21:44.497Z,45.02
2017-07-29T09:22:44.903Z,45.02
2017-07-29T09:23:44.800Z,44.92
2017-07-29T09:24:44.896Z,45.02
2017-07-29T09:25:44.792Z,45.21
2017-07-29T09:26:44.992Z,45.21
2017-07-29T09:27:44.787Z,45.31
2017-07-29T09:28:44.784Z,45.02
2017-07-29T09:29:44.780Z,45.04
2017-07-29T09:30:44.777Z,45.53
2017-07-29T09:31:44.926Z,45.14
2017-07-29T09:32:44.770Z,44.87
2017-07-29T09:33:44.770Z,44.97
2017-07-29T09:34:44.767Z,44.21
2017-07-29T09:35:44.766Z,44.7
2017-07-29T09:36:44.910Z,44.99
2017-07-29T09:37:44.761Z,45.09
2017-07-29T09:38:44.755Z,44.12
2017-07-29T09:39:44.753Z,44.02
2017-07-29T09:40:44.754Z,43.92
2017-07-29T09:41:44.748Z,44.31
2017-07-29T09:42:44.746Z,44.12
2017-07-29T09:43:44.740Z,44.12
2017-07-29T09:44:44.740Z,44.31
2017-07-29T09:45:44.837Z,44
2017-07-29T09:46:44.733Z,43.51
2017-07-29T09:47:44.426Z,43.88
2017-07-29T09:48:44.426Z,43.88
2017-07-29T09:49:44.729Z,44.17
2017-07-29T09:50:44.719Z,44.34
2017-07-29T09:51:44.718Z,44.92
2017-07-29T09:52:44.865Z,45.02
2017-07-29T09:53:44.814Z,45.12
2017-07-29T09:54:44.710Z,45.89
2017-07-29T09:55:44.709Z,45.41
2017-07-29T09:56:44.707Z,44.54
2017-07-29T09:57:44.707Z,44.81
2017-07-29T09:58:44.948Z,45.1
2017-07-29T09:59:44.697Z,45.2
2017-07-29T10:00:44.692Z,44.88
2017-07-29T10:01:44.689Z,44.59
2017-07-29T10:02:44.684Z,44.98
2017-07-29T10:03:44.838Z,44.98
2017-07-29T10:04:44.680Z,45.17
2017-07-29T10:05:44.680Z,45.17
2017-07-29T10:06:44.678Z,45.1
2017-07-29T10:07:44.672Z,45.29
2017-07-29T10:08:44.670Z,44.73
2017-07-29T10:09:44.670Z,44.73
2017-07-29T10:10:44.671Z,45.12
2017-07-29T10:11:44.661Z,45.41
2017-07-29T10:12:44.657Z,45.41
2017-07-29T10:13:44.655Z,44.92
2017-07-29T10:14:44.655Z,45.12
2017-07-29T10:15:44.648Z,45.21
2017-07-29T10:16:44.748Z,45.51
2017-07-29T10:17:44.643Z,45.31
2017-07-29T10:18:44.641Z,45.21
2017-07-29T10:19:44.638Z,45.7
2017-07-29T10:20:44.636Z,45.8
2017-07-29T10:21:44.631Z,45.8
2017-07-29T10:22:44.753Z,45.8
2017-07-29T10:23:44.624Z,45.41
2017-07-29T10:24:44.624Z,45.21
2017-07-29T10:25:44.619Z,45.2
2017-07-29T10:26:44.417Z,45
2017-07-29T10:27:44.617Z,44.42
2017-07-29T10:28:44.612Z,44.9
2017-07-29T10:29:44.609Z,45.1
2017-07-29T10:30:44.606Z,44.51
2017-07-29T10:31:44.704Z,44.9
2017-07-29T10:32:44.600Z,45.27
2017-07-29T10:33:44.597Z,45.68
2017-07-29T10:34:44.695Z,45.37
2017-07-29T10:35:44.600Z,45.37
2017-07-29T10:36:44.589Z,45.37
2017-07-29T10:37:44.584Z,45.17
2017-07-29T10:38:44.738Z,44.88
2017-07-29T10:39:44.276Z,44.98
2017-07-29T10:40:44.375Z,44.68
2017-07-29T10:41:44.574Z,44.59
2017-07-29T10:42:44.572Z,44.67
2017-07-29T10:43:44.568Z,45.27
2017-07-29T10:44:44.569Z,45.47
2017-07-29T10:45:44.258Z,45.56
2017-07-29T10:46:44.257Z,46.14
2017-07-29T10:47:44.252Z,45.54
2017-07-29T10:48:44.703Z,45.25
2017-07-29T10:49:44.553Z,44.96
2017-07-29T10:50:44.649Z,45.25
2017-07-29T10:51:44.548Z,45.64
2017-07-29T10:52:44.702Z,46.31
2017-07-29T10:53:44.386Z,46.31
2017-07-29T10:54:44.537Z,46.6
2017-07-29T10:55:44.531Z,46.02
2017-07-29T10:56:44.535Z,45.83
2017-07-29T10:57:44.529Z,46.12
2017-07-29T10:58:44.525Z,46.24
2017-07-29T10:59:44.562Z,46.14
2017-07-29T11:00:44.517Z,46.24
2017-07-29T11:01:44.210Z,46.33
2017-07-29T11:02:44.515Z,45.56
2017-07-29T11:03:44.511Z,45.95
2017-07-29T11:04:44.609Z,45.85
2017-07-29T11:05:44.504Z,46.43
2017-07-29T11:06:44.500Z,46.33
2017-07-29T11:07:44.605Z,46.43
2017-07-29T11:08:44.497Z,46.33
2017-07-29T11:09:44.646Z,46.62
2017-07-29T11:10:44.589Z,46.82
2017-07-29T11:11:44.484Z,46.43
2017-07-29T11:12:44.490Z,46.43
2017-07-29T11:13:44.484Z,46.43
2017-07-29T11:14:44.474Z,46.04
2017-07-29T11:15:44.570Z,45.56
2017-07-29T11:16:44.471Z,45.07
2017-07-29T11:17:44.464Z,44.88
2017-07-29T11:18:44.259Z,45.15
2017-07-29T11:19:44.471Z,45.05
2017-07-29T11:20:44.557Z,44.67
2017-07-29T11:21:44.559Z,44.96
2017-07-29T11:22:44.454Z,45.15
2017-07-29T11:23:44.450Z,44.86
2017-07-29T11:24:44.548Z,44.96
2017-07-29T11:25:44.445Z,44.76
2017-07-29T11:26:44.442Z,45.15
2017-07-29T11:27:44.436Z,45.25
2017-07-29T11:28:44.431Z,45.54
2017-07-29T11:29:44.530Z,45.51
2017-07-29T11:30:44.580Z,45.81
2017-07-29T11:31:44.427Z,46
2017-07-29T11:32:44.424Z,46.39
2017-07-29T11:33:44.421Z,46.67
2017-07-29T11:34:44.417Z,46.67
2017-07-29T11:35:44.612Z,46.77
2017-07-29T11:36:44.408Z,46.67
2017-07-29T11:37:44.406Z,46.48
2017-07-29T11:38:44.413Z,46.39
2017-07-29T11:39:44.397Z,46.39
2017-07-29T11:40:44.407Z,46.77
2017-07-29T11:41:44.394Z,47.16
2017-07-29T11:42:44.393Z,47.64
2017-07-29T11:43:44.485Z,47.57
2017-07-29T11:44:44.383Z,47.55
2017-07-29T11:45:44.383Z,47.86
2017-07-29T11:46:44.480Z,47.67
2017-07-29T11:47:44.371Z,47.64
2017-07-29T11:48:44.374Z,47.45
2017-07-29T11:49:44.370Z,47.84
2017-07-29T11:50:44.366Z,47.74
2017-07-29T11:51:44.367Z,48.22
2017-07-29T11:52:44.460Z,47.84
2017-07-29T11:53:44.360Z,48.42
2017-07-29T11:54:44.352Z,48.32
2017-07-29T11:55:44.374Z,48.32
2017-07-29T11:56:44.345Z,48.61
2017-07-29T11:57:44.349Z,48.9
2017-07-29T11:58:44.346Z,48.61
2017-07-29T11:59:44.336Z,48.52
2017-07-29T12:00:44.338Z,48.71
2017-07-29T12:01:44.329Z,49.19
2017-07-29T12:02:44.485Z,49.29
2017-07-29T12:03:44.323Z,49.87
2017-07-29T12:04:44.327Z,49.77
2017-07-29T12:05:44.322Z,50.16
2017-07-29T12:06:44.314Z,49.68
2017-07-29T12:07:44.510Z,49.51
2017-07-29T12:08:44.311Z,50.09
2017-07-29T12:09:44.406Z,49.7
2017-07-29T12:10:44.303Z,49.51
2017-07-29T12:11:43.997Z,49.9
2017-07-29T12:12:43.989Z,49.63
2017-07-29T12:13:44.294Z,49.05
2017-07-29T12:14:44.292Z,48.76
2017-07-29T12:15:44.288Z,48.95
2017-07-29T12:16:44.285Z,48.85
2017-07-29T12:17:44.306Z,48.85
2017-07-29T12:18:44.279Z,47.79
2017-07-29T12:19:44.378Z,48.18
2017-07-29T12:20:44.275Z,47.6
2017-07-29T12:21:44.274Z,47.79
2017-07-29T12:22:44.368Z,47.3
2017-07-29T12:23:44.262Z,46.92
2017-07-29T12:24:43.955Z,46.92
2017-07-29T12:25:44.259Z,46.72
2017-07-29T12:26:44.257Z,47.5
2017-07-29T12:27:44.257Z,47.91
2017-07-29T12:28:44.351Z,47.62
2017-07-29T12:29:44.244Z,47.23
2017-07-29T12:30:44.342Z,47.13
2017-07-29T12:31:44.261Z,47.81
2017-07-29T12:32:44.339Z,47.13
2017-07-29T12:33:44.333Z,46.94
2017-07-29T12:34:44.229Z,46.96
2017-07-29T12:35:43.921Z,46.58
2017-07-29T12:36:44.331Z,46.67
2017-07-29T12:37:44.225Z,46.48
2017-07-29T12:38:44.221Z,45.99
2017-07-29T12:39:44.222Z,45.41
2017-07-29T12:40:44.214Z,45.99
2017-07-29T12:41:44.312Z,45.99
2017-07-29T12:42:44.207Z,45.51
2017-07-29T12:43:44.207Z,45.61
2017-07-29T12:44:44.208Z,45.61
2017-07-29T12:45:44.202Z,45.7
2017-07-29T12:46:44.204Z,45.41
2017-07-29T12:47:44.195Z,45.34
2017-07-29T12:48:44.193Z,44.95
2017-07-29T12:49:44.286Z,45.24
2017-07-29T12:50:43.882Z,45.34
2017-07-29T12:51:44.282Z,45.34
2017-07-29T12:52:44.181Z,45.24
2017-07-29T12:53:43.880Z,45.43
2017-07-29T12:54:43.870Z,45.34
2017-07-29T12:55:44.071Z,45.14
2017-07-29T12:56:43.865Z,46.11